YDF weather

Deer Lake Airport
Deer Lake, Newfoundland and Labrador, Canada

Public forecast

Using degrees Celsius for public forecast. Weather courtesy of forecast.io.

Current aviation weather report (METAR) for Deer Lake Airport

Retrieved 2019/12/08 23:00 UTC (60 minutes ago):

CYDF 082300Z 25007KT 15SM -SHSN OVC025 M03/M06 A3016 RMK SC8 CVCTV CLD EMBD SLP216

Aviation forecast (TAF) for Deer Lake Airport

Retrieved 2019/12/08 20:39 UTC (3 hours ago):

TAF CYDF 081938Z 0820/0908 24012KT P6SM -SN OVC040 TEMPO 0820/0824 5SM -SHSN BKN020 OVC040 FM090000 25012KT P6SM BKN020 TEMPO 0900/0906 BKN030 FM090600 22012G22KT P6SM -SN BKN015 OVC030 TEMPO 0906/0908 5SM -SN BKN008 OVC015 RMK NXT FCST BY 090200Z